sensor_id;sensor_type;location;lat;lon;timestamp;pressure;altitude;pressure_sealevel;temperature;humidity
49342;BME280;35210;41.606;-87.602;2023-05-29T00:01:21;99623.06;;;23.50;32.31
49342;BME280;35210;41.606;-87.602;2023-05-29T00:03:50;99625.53;;;23.45;32.13
49342;BME280;35210;41.606;-87.602;2023-05-29T00:06:19;99625.06;;;23.42;32.80
49342;BME280;35210;41.606;-87.602;2023-05-29T00:08:47;99628.94;;;23.33;32.87
49342;BME280;35210;41.606;-87.602;2023-05-29T00:11:15;99629.47;;;23.21;33.35
49342;BME280;35210;41.606;-87.602;2023-05-29T00:13:43;99636.47;;;23.16;33.50
49342;BME280;35210;41.606;-87.602;2023-05-29T00:16:13;99638.47;;;23.07;33.19
49342;BME280;35210;41.606;-87.602;2023-05-29T00:18:41;99647.94;;;22.97;32.85
49342;BME280;35210;41.606;-87.602;2023-05-29T00:21:11;99653.50;;;22.95;33.75
49342;BME280;35210;41.606;-87.602;2023-05-29T00:23:40;99650.13;;;22.72;34.33
49342;BME280;35210;41.606;-87.602;2023-05-29T00:26:08;99646.84;;;22.55;35.21
49342;BME280;35210;41.606;-87.602;2023-05-29T00:28:37;99646.56;;;22.50;34.89
49342;BME280;35210;41.606;-87.602;2023-05-29T00:31:05;99652.06;;;22.42;34.77
49342;BME280;35210;41.606;-87.602;2023-05-29T00:33:35;99654.03;;;22.33;34.82
49342;BME280;35210;41.606;-87.602;2023-05-29T00:36:04;99658.16;;;22.14;34.81
49342;BME280;35210;41.606;-87.602;2023-05-29T00:38:32;99654.78;;;21.97;35.23
49342;BME280;35210;41.606;-87.602;2023-05-29T00:41:00;99658.69;;;21.95;35.85
49342;BME280;35210;41.606;-87.602;2023-05-29T00:43:28;99658.88;;;21.79;36.09
49342;BME280;35210;41.606;-87.602;2023-05-29T00:45:56;99657.94;;;21.72;36.55
49342;BME280;35210;41.606;-87.602;2023-05-29T00:48:25;99665.81;;;21.73;36.82
49342;BME280;35210;41.606;-87.602;2023-05-29T00:50:55;99666.91;;;21.64;36.93
49342;BME280;35210;41.606;-87.602;2023-05-29T00:53:23;99662.28;;;21.58;37.45
49342;BME280;35210;41.606;-87.602;2023-05-29T00:55:52;99664.78;;;21.59;36.97
49342;BME280;35210;41.606;-87.602;2023-05-29T00:58:20;99662.75;;;21.61;37.24
49342;BME280;35210;41.606;-87.602;2023-05-29T01:00:49;99661.06;;;21.60;38.08
49342;BME280;35210;41.606;-87.602;2023-05-29T01:03:18;99667.38;;;21.68;37.55
49342;BME280;35210;41.606;-87.602;2023-05-29T01:05:49;99667.63;;;21.58;37.63
49342;BME280;35210;41.606;-87.602;2023-05-29T01:08:19;99668.84;;;21.55;37.30
49342;BME280;35210;41.606;-87.602;2023-05-29T01:10:50;99664.00;;;21.36;37.96
49342;BME280;35210;41.606;-87.602;2023-05-29T01:13:23;99667.44;;;21.30;38.56
49342;BME280;35210;41.606;-87.602;2023-05-29T01:16:00;99667.78;;;21.27;38.45
49342;BME280;35210;41.606;-87.602;2023-05-29T01:18:38;99669.81;;;21.25;38.99
49342;BME280;35210;41.606;-87.602;2023-05-29T01:21:11;99663.09;;;21.21;39.03
49342;BME280;35210;41.606;-87.602;2023-05-29T01:23:56;99666.03;;;21.11;39.26
49342;BME280;35210;41.606;-87.602;2023-05-29T01:26:45;99660.91;;;21.02;40.79
49342;BME280;35210;41.606;-87.602;2023-05-29T01:29:18;99666.47;;;21.00;41.23
49342;BME280;35210;41.606;-87.602;2023-05-29T01:31:48;99665.69;;;20.91;40.95
49342;BME280;35210;41.606;-87.602;2023-05-29T01:34:17;99671.75;;;20.85;41.09
49342;BME280;35210;41.606;-87.602;2023-05-29T01:36:45;99676.13;;;20.86;41.43
49342;BME280;35210;41.606;-87.602;2023-05-29T01:39:14;99670.84;;;20.78;42.03
49342;BME280;35210;41.606;-87.602;2023-05-29T01:41:45;99676.06;;;20.72;42.58
49342;BME280;35210;41.606;-87.602;2023-05-29T01:44:15;99675.06;;;20.73;42.32
49342;BME280;35210;41.606;-87.602;2023-05-29T01:46:45;99674.94;;;20.66;42.01
49342;BME280;35210;41.606;-87.602;2023-05-29T01:49:14;99674.75;;;20.67;42.40
49342;BME280;35210;41.606;-87.602;2023-05-29T01:51:42;99685.34;;;20.61;42.59
49342;BME280;35210;41.606;-87.602;2023-05-29T01:54:11;99694.41;;;20.60;42.89
49342;BME280;35210;41.606;-87.602;2023-05-29T01:56:39;99682.09;;;20.43;43.05
49342;BME280;35210;41.606;-87.602;2023-05-29T01:59:10;99685.78;;;20.33;43.50
49342;BME280;35210;41.606;-87.602;2023-05-29T02:01:40;99689.47;;;20.32;43.66
49342;BME280;35210;41.606;-87.602;2023-05-29T02:04:08;99695.03;;;20.31;43.81
49342;BME280;35210;41.606;-87.602;2023-05-29T02:06:36;99687.84;;;20.23;44.12
49342;BME280;35210;41.606;-87.602;2023-05-29T02:09:05;99697.56;;;20.24;44.35
49342;BME280;35210;41.606;-87.602;2023-05-29T02:11:34;99692.56;;;20.13;44.69
49342;BME280;35210;41.606;-87.602;2023-05-29T02:14:02;99699.84;;;20.05;44.99
49342;BME280;35210;41.606;-87.602;2023-05-29T02:16:31;99699.69;;;19.98;45.84
49342;BME280;35210;41.606;-87.602;2023-05-29T02:19:00;99698.00;;;19.97;46.08
49342;BME280;35210;41.606;-87.602;2023-05-29T02:21:30;99696.34;;;19.96;46.27
49342;BME280;35210;41.606;-87.602;2023-05-29T02:23:58;99701.38;;;19.91;46.29
49342;BME280;35210;41.606;-87.602;2023-05-29T02:26:26;99699.88;;;19.88;46.46
49342;BME280;35210;41.606;-87.602;2023-05-29T02:28:54;99707.41;;;19.85;47.11
49342;BME280;35210;41.606;-87.602;2023-05-29T02:31:22;99698.06;;;19.81;47.57
49342;BME280;35210;41.606;-87.602;2023-05-29T02:33:52;99701.06;;;19.78;48.00
49342;BME280;35210;41.606;-87.602;2023-05-29T02:36:20;99703.25;;;19.74;48.16
49342;BME280;35210;41.606;-87.602;2023-05-29T02:38:48;99704.94;;;19.75;48.23
49342;BME280;35210;41.606;-87.602;2023-05-29T02:41:16;99710.97;;;19.69;49.07
49342;BME280;35210;41.606;-87.602;2023-05-29T02:43:44;99712.13;;;19.66;49.45
49342;BME280;35210;41.606;-87.602;2023-05-29T02:46:13;99708.44;;;19.67;49.04
49342;BME280;35210;41.606;-87.602;2023-05-29T02:48:41;99717.50;;;19.66;49.53
49342;BME280;35210;41.606;-87.602;2023-05-29T02:51:10;99722.34;;;19.63;49.69
49342;BME280;35210;41.606;-87.602;2023-05-29T02:53:40;99726.38;;;19.59;49.71
49342;BME280;35210;41.606;-87.602;2023-05-29T02:56:08;99737.25;;;19.57;50.34
49342;BME280;35210;41.606;-87.602;2023-05-29T02:58:36;99730.56;;;19.53;50.65
49342;BME280;35210;41.606;-87.602;2023-05-29T03:01:05;99730.19;;;19.48;51.02
49342;BME280;35210;41.606;-87.602;2023-05-29T03:03:33;99733.03;;;19.47;51.32
49342;BME280;35210;41.606;-87.602;2023-05-29T03:06:01;99725.50;;;19.42;51.24
49342;BME280;35210;41.606;-87.602;2023-05-29T03:08:31;99721.31;;;19.40;51.92
49342;BME280;35210;41.606;-87.602;2023-05-29T03:10:59;99722.50;;;19.37;51.51
49342;BME280;35210;41.606;-87.602;2023-05-29T03:13:29;99724.50;;;19.35;52.04
49342;BME280;35210;41.606;-87.602;2023-05-29T03:15:57;99722.34;;;19.30;52.21
49342;BME280;35210;41.606;-87.602;2023-05-29T03:18:25;99722.03;;;19.25;52.77
49342;BME280;35210;41.606;-87.602;2023-05-29T03:20:54;99712.97;;;19.18;53.25
49342;BME280;35210;41.606;-87.602;2023-05-29T03:23:22;99716.00;;;19.15;53.18
49342;BME280;35210;41.606;-87.602;2023-05-29T03:25:51;99710.28;;;19.10;53.12
49342;BME280;35210;41.606;-87.602;2023-05-29T03:28:19;99707.78;;;19.09;53.46
49342;BME280;35210;41.606;-87.602;2023-05-29T03:30:48;99708.13;;;19.06;53.57
49342;BME280;35210;41.606;-87.602;2023-05-29T03:33:17;99716.63;;;19.01;53.58
49342;BME280;35210;41.606;-87.602;2023-05-29T03:35:45;99710.09;;;18.95;53.79
49342;BME280;35210;41.606;-87.602;2023-05-29T03:38:14;99708.75;;;18.91;54.03
49342;BME280;35210;41.606;-87.602;2023-05-29T03:40:43;99703.56;;;18.90;54.10
49342;BME280;35210;41.606;-87.602;2023-05-29T03:43:12;99703.41;;;18.83;54.43
49342;BME280;35210;41.606;-87.602;2023-05-29T03:45:41;99702.88;;;18.80;53.98
49342;BME280;35210;41.606;-87.602;2023-05-29T03:48:09;99711.06;;;18.78;54.44
49342;BME280;35210;41.606;-87.602;2023-05-29T03:50:37;99701.69;;;18.74;54.70
49342;BME280;35210;41.606;-87.602;2023-05-29T03:53:06;99699.03;;;18.74;54.43
49342;BME280;35210;41.606;-87.602;2023-05-29T03:55:35;99705.69;;;18.70;54.72
49342;BME280;35210;41.606;-87.602;2023-05-29T03:58:03;99699.00;;;18.66;54.91
49342;BME280;35210;41.606;-87.602;2023-05-29T04:00:36;99700.31;;;18.62;55.12
49342;BME280;35210;41.606;-87.602;2023-05-29T04:03:05;99702.28;;;18.60;55.30
49342;BME280;35210;41.606;-87.602;2023-05-29T04:05:33;99698.47;;;18.54;55.53
49342;BME280;35210;41.606;-87.602;2023-05-29T04:08:01;99691.78;;;18.50;55.63
49342;BME280;35210;41.606;-87.602;2023-05-29T04:10:30;99687.25;;;18.51;55.08
49342;BME280;35210;41.606;-87.602;2023-05-29T04:12:59;99681.22;;;18.49;55.08
49342;BME280;35210;41.606;-87.602;2023-05-29T04:15:28;99687.06;;;18.44;55.64
49342;BME280;35210;41.606;-87.602;2023-05-29T04:17:58;99686.41;;;18.42;55.40
49342;BME280;35210;41.606;-87.602;2023-05-29T04:20:26;99679.84;;;18.36;56.43
49342;BME280;35210;41.606;-87.602;2023-05-29T04:22:54;99679.34;;;18.33;56.28
49342;BME280;35210;41.606;-87.602;2023-05-29T04:25:22;99678.81;;;18.29;56.74
49342;BME280;35210;41.606;-87.602;2023-05-29T04:27:50;99675.97;;;18.23;56.78
49342;BME280;35210;41.606;-87.602;2023-05-29T04:30:18;99681.78;;;18.18;56.55
49342;BME280;35210;41.606;-87.602;2023-05-29T04:32:47;99675.75;;;18.16;57.28
49342;BME280;35210;41.606;-87.602;2023-05-29T04:35:17;99675.41;;;18.11;56.98
49342;BME280;35210;41.606;-87.602;2023-05-29T04:37:46;99678.56;;;18.06;57.71
49342;BME280;35210;41.606;-87.602;2023-05-29T04:40:14;99670.19;;;18.01;57.72
49342;BME280;35210;41.606;-87.602;2023-05-29T04:42:43;99659.44;;;17.93;58.17
49342;BME280;35210;41.606;-87.602;2023-05-29T04:45:12;99656.41;;;17.88;58.61
49342;BME280;35210;41.606;-87.602;2023-05-29T04:47:40;99660.56;;;17.83;59.02
49342;BME280;35210;41.606;-87.602;2023-05-29T04:50:11;99664.44;;;17.80;59.45
49342;BME280;35210;41.606;-87.602;2023-05-29T04:52:41;99667.56;;;17.76;60.12
49342;BME280;35210;41.606;-87.602;2023-05-29T04:55:10;99663.53;;;17.71;59.89
49342;BME280;35210;41.606;-87.602;2023-05-29T04:57:38;99658.50;;;17.68;59.92
49342;BME280;35210;41.606;-87.602;2023-05-29T05:00:07;99653.31;;;17.67;60.14
49342;BME280;35210;41.606;-87.602;2023-05-29T05:02:41;99665.97;;;17.65;60.09
49342;BME280;35210;41.606;-87.602;2023-05-29T05:05:10;99660.78;;;17.63;60.89
49342;BME280;35210;41.606;-87.602;2023-05-29T05:07:40;99661.09;;;17.60;62.29
49342;BME280;35210;41.606;-87.602;2023-05-29T05:10:09;99658.59;;;17.59;62.31
49342;BME280;35210;41.606;-87.602;2023-05-29T05:12:37;99654.41;;;17.56;63.01
49342;BME280;35210;41.606;-87.602;2023-05-29T05:15:07;99654.03;;;17.51;63.32
49342;BME280;35210;41.606;-87.602;2023-05-29T05:17:35;99652.50;;;17.49;63.29
49342;BME280;35210;41.606;-87.602;2023-05-29T05:20:04;99644.97;;;17.44;63.16
49342;BME280;35210;41.606;-87.602;2023-05-29T05:22:33;99645.28;;;17.41;63.20
49342;BME280;35210;41.606;-87.602;2023-05-29T05:25:06;99650.94;;;17.38;63.38
49342;BME280;35210;41.606;-87.602;2023-05-29T05:27:35;99647.59;;;17.36;63.65
49342;BME280;35210;41.606;-87.602;2023-05-29T05:30:04;99648.72;;;17.33;63.24
49342;BME280;35210;41.606;-87.602;2023-05-29T05:32:34;99650.88;;;17.30;63.70
49342;BME280;35210;41.606;-87.602;2023-05-29T05:35:02;99640.66;;;17.25;63.54
49342;BME280;35210;41.606;-87.602;2023-05-29T05:37:30;99646.16;;;17.24;63.68
49342;BME280;35210;41.606;-87.602;2023-05-29T05:39:58;99639.31;;;17.21;63.89
49342;BME280;35210;41.606;-87.602;2023-05-29T05:42:28;99636.78;;;17.20;63.97
49342;BME280;35210;41.606;-87.602;2023-05-29T05:44:56;99638.78;;;17.18;64.27
49342;BME280;35210;41.606;-87.602;2023-05-29T05:47:24;99636.56;;;17.13;64.88
49342;BME280;35210;41.606;-87.602;2023-05-29T05:49:53;99641.38;;;17.09;65.19
49342;BME280;35210;41.606;-87.602;2023-05-29T05:52:22;99636.38;;;17.06;65.45
49342;BME280;35210;41.606;-87.602;2023-05-29T05:54:50;99633.72;;;17.06;65.23
49342;BME280;35210;41.606;-87.602;2023-05-29T05:57:18;99638.38;;;17.04;64.88
49342;BME280;35210;41.606;-87.602;2023-05-29T05:59:48;99633.34;;;17.01;65.28
49342;BME280;35210;41.606;-87.602;2023-05-29T06:02:16;99629.97;;;16.99;65.42
49342;BME280;35210;41.606;-87.602;2023-05-29T06:04:45;99629.31;;;16.97;65.88
49342;BME280;35210;41.606;-87.602;2023-05-29T06:07:16;99632.97;;;16.96;66.29
49342;BME280;35210;41.606;-87.602;2023-05-29T06:09:44;99630.59;;;16.93;66.96
49342;BME280;35210;41.606;-87.602;2023-05-29T06:12:12;99626.41;;;16.91;66.68
49342;BME280;35210;41.606;-87.602;2023-05-29T06:14:40;99622.22;;;16.88;66.93
49342;BME280;35210;41.606;-87.602;2023-05-29T06:17:10;99624.19;;;16.86;67.16
49342;BME280;35210;41.606;-87.602;2023-05-29T06:19:38;99624.19;;;16.86;67.30
49342;BME280;35210;41.606;-87.602;2023-05-29T06:22:06;99618.19;;;16.84;66.99
49342;BME280;35210;41.606;-87.602;2023-05-29T06:24:34;99620.16;;;16.82;67.08
49342;BME280;35210;41.606;-87.602;2023-05-29T06:27:02;99626.50;;;16.81;67.28
49342;BME280;35210;41.606;-87.602;2023-05-29T06:29:31;99628.47;;;16.79;67.77
49342;BME280;35210;41.606;-87.602;2023-05-29T06:31:59;99621.75;;;16.75;68.31
49342;BME280;35210;41.606;-87.602;2023-05-29T06:34:28;99621.09;;;16.73;68.16
49342;BME280;35210;41.606;-87.602;2023-05-29T06:36:56;99615.06;;;16.71;68.10
49342;BME280;35210;41.606;-87.602;2023-05-29T06:39:25;99623.38;;;16.68;68.44
49342;BME280;35210;41.606;-87.602;2023-05-29T06:41:53;99618.19;;;16.66;68.13
49342;BME280;35210;41.606;-87.602;2023-05-29T06:44:21;99615.94;;;16.62;68.61
49342;BME280;35210;41.606;-87.602;2023-05-29T06:46:49;99615.25;;;16.60;68.70
49342;BME280;35210;41.606;-87.602;2023-05-29T06:49:17;99616.53;;;16.56;68.98
49342;BME280;35210;41.606;-87.602;2023-05-29T06:51:47;99620.50;;;16.52;69.94
49342;BME280;35210;41.606;-87.602;2023-05-29T06:54:15;99611.53;;;16.53;70.31
49342;BME280;35210;41.606;-87.602;2023-05-29T06:56:43;99613.50;;;16.51;70.84
49342;BME280;35210;41.606;-87.602;2023-05-29T06:59:11;99606.78;;;16.47;71.43
49342;BME280;35210;41.606;-87.602;2023-05-29T07:01:39;99599.25;;;16.42;71.76
49342;BME280;35210;41.606;-87.602;2023-05-29T07:04:07;99609.38;;;16.38;72.12
49342;BME280;35210;41.606;-87.602;2023-05-29T07:06:35;99609.53;;;16.37;72.14
49342;BME280;35210;41.606;-87.602;2023-05-29T07:09:07;99599.34;;;16.32;72.54
49342;BME280;35210;41.606;-87.602;2023-05-29T07:11:35;99596.00;;;16.30;72.47
49342;BME280;35210;41.606;-87.602;2023-05-29T07:14:03;99594.31;;;16.29;72.64
49342;BME280;35210;41.606;-87.602;2023-05-29T07:16:32;99588.00;;;16.30;72.36
49342;BME280;35210;41.606;-87.602;2023-05-29T07:19:00;99591.66;;;16.29;72.45
49342;BME280;35210;41.606;-87.602;2023-05-29T07:21:29;99589.28;;;16.26;72.85
49342;BME280;35210;41.606;-87.602;2023-05-29T07:23:57;99589.59;;;16.23;72.92
49342;BME280;35210;41.606;-87.602;2023-05-29T07:26:27;99584.56;;;16.20;72.73
49342;BME280;35210;41.606;-87.602;2023-05-29T07:28:56;99590.19;;;16.17;72.90
49342;BME280;35210;41.606;-87.602;2023-05-29T07:31:24;99590.34;;;16.16;72.75
49342;BME280;35210;41.606;-87.602;2023-05-29T07:33:53;99588.50;;;16.16;72.41
49342;BME280;35210;41.606;-87.602;2023-05-29T07:36:21;99587.53;;;16.17;72.25
49342;BME280;35210;41.606;-87.602;2023-05-29T07:38:49;99581.50;;;16.15;72.46
49342;BME280;35210;41.606;-87.602;2023-05-29T07:41:17;99583.34;;;16.15;72.26
49342;BME280;35210;41.606;-87.602;2023-05-29T07:43:47;99582.78;;;16.11;73.09
49342;BME280;35210;41.606;-87.602;2023-05-29T07:46:19;99587.44;;;16.09;73.22
49342;BME280;35210;41.606;-87.602;2023-05-29T07:48:47;99585.75;;;16.08;72.93
49342;BME280;35210;41.606;-87.602;2023-05-29T07:51:15;99582.41;;;16.06;72.81
49342;BME280;35210;41.606;-87.602;2023-05-29T07:53:44;99577.06;;;16.06;73.29
49342;BME280;35210;41.606;-87.602;2023-05-29T07:56:13;99582.41;;;16.06;73.13
49342;BME280;35210;41.606;-87.602;2023-05-29T07:58:42;99583.25;;;16.06;73.38
49342;BME280;35210;41.606;-87.602;2023-05-29T08:01:12;99586.88;;;16.05;73.36
49342;BME280;35210;41.606;-87.602;2023-05-29T08:03:41;99586.06;;;16.05;73.52
49342;BME280;35210;41.606;-87.602;2023-05-29T08:06:09;99591.38;;;16.05;73.30
49342;BME280;35210;41.606;-87.602;2023-05-29T08:08:37;99590.41;;;16.06;73.21
49342;BME280;35210;41.606;-87.602;2023-05-29T08:11:06;99590.41;;;16.06;73.52
49342;BME280;35210;41.606;-87.602;2023-05-29T08:13:34;99593.34;;;16.03;73.65
49342;BME280;35210;41.606;-87.602;2023-05-29T08:16:02;99590.69;;;16.03;73.61
49342;BME280;35210;41.606;-87.602;2023-05-29T08:18:32;99587.03;;;16.04;73.45
49342;BME280;35210;41.606;-87.602;2023-05-29T08:21:00;99590.69;;;16.03;73.83
49342;BME280;35210;41.606;-87.602;2023-05-29T08:23:28;99585.22;;;16.04;73.66
49342;BME280;35210;41.606;-87.602;2023-05-29T08:25:57;99585.22;;;16.04;73.71
49342;BME280;35210;41.606;-87.602;2023-05-29T08:28:26;99590.53;;;16.04;74.00
49342;BME280;35210;41.606;-87.602;2023-05-29T08:30:54;99590.84;;;16.01;73.91
49342;BME280;35210;41.606;-87.602;2023-05-29T08:33:22;99583.00;;;16.00;74.34
49342;BME280;35210;41.606;-87.602;2023-05-29T08:35:51;99583.28;;;15.97;74.01
49342;BME280;35210;41.606;-87.602;2023-05-29T08:38:19;99580.09;;;15.93;74.63
49342;BME280;35210;41.606;-87.602;2023-05-29T08:40:48;99571.56;;;15.90;74.67
49342;BME280;35210;41.606;-87.602;2023-05-29T08:43:19;99576.88;;;15.90;75.09
49342;BME280;35210;41.606;-87.602;2023-05-29T08:45:53;99565.41;;;15.89;74.74
49342;BME280;35210;41.606;-87.602;2023-05-29T08:48:23;99566.53;;;15.87;74.86
49342;BME280;35210;41.606;-87.602;2023-05-29T08:50:55;99569.34;;;15.85;75.10
49342;BME280;35210;41.606;-87.602;2023-05-29T08:53:24;99586.31;;;15.84;75.07
49342;BME280;35210;41.606;-87.602;2023-05-29T08:55:53;99585.31;;;15.85;75.41
49342;BME280;35210;41.606;-87.602;2023-05-29T08:58:22;99572.44;;;15.81;75.79
49342;BME280;35210;41.606;-87.602;2023-05-29T09:00:51;99578.06;;;15.77;76.23
49342;BME280;35210;41.606;-87.602;2023-05-29T09:03:19;99578.91;;;15.78;76.88
49342;BME280;35210;41.606;-87.602;2023-05-29T09:05:49;99587.88;;;15.77;77.45
49342;BME280;35210;41.606;-87.602;2023-05-29T09:08:19;99582.69;;;15.75;77.99
49342;BME280;35210;41.606;-87.602;2023-05-29T09:10:47;99576.69;;;15.73;78.67
49342;BME280;35210;41.606;-87.602;2023-05-29T09:13:15;99572.50;;;15.71;78.85
49342;BME280;35210;41.606;-87.602;2023-05-29T09:15:43;99574.47;;;15.69;78.99
49342;BME280;35210;41.606;-87.602;2023-05-29T09:18:11;99575.59;;;15.66;79.44
49342;BME280;35210;41.606;-87.602;2023-05-29T09:20:39;99585.53;;;15.64;79.53
49342;BME280;35210;41.606;-87.602;2023-05-29T09:23:09;99582.88;;;15.64;79.42
49342;BME280;35210;41.606;-87.602;2023-05-29T09:25:42;99581.34;;;15.62;79.41
49342;BME280;35210;41.606;-87.602;2023-05-29T09:28:10;99583.19;;;15.61;79.54
49342;BME280;35210;41.606;-87.602;2023-05-29T09:30:39;99586.16;;;15.58;79.71
49342;BME280;35210;41.606;-87.602;2023-05-29T09:33:09;99588.25;;;15.55;79.78
49342;BME280;35210;41.606;-87.602;2023-05-29T09:35:38;99578.72;;;15.52;80.10
49342;BME280;35210;41.606;-87.602;2023-05-29T09:38:08;99584.34;;;15.49;80.77
49342;BME280;35210;41.606;-87.602;2023-05-29T09:40:37;99579.31;;;15.46;81.37
49342;BME280;35210;41.606;-87.602;2023-05-29T09:43:10;99581.28;;;15.44;82.04
49342;BME280;35210;41.606;-87.602;2023-05-29T09:45:39;99586.06;;;15.40;82.33
49342;BME280;35210;41.606;-87.602;2023-05-29T09:48:08;99588.84;;;15.39;82.24
49342;BME280;35210;41.606;-87.602;2023-05-29T09:50:36;99596.97;;;15.37;82.36
49342;BME280;35210;41.606;-87.602;2023-05-29T09:53:16;99601.47;;;15.37;82.43
49342;BME280;35210;41.606;-87.602;2023-05-29T09:55:46;99600.06;;;15.33;82.42
49342;BME280;35210;41.606;-87.602;2023-05-29T09:58:16;99604.84;;;15.29;82.47
49342;BME280;35210;41.606;-87.602;2023-05-29T10:00:45;99600.38;;;15.30;82.01
49342;BME280;35210;41.606;-87.602;2023-05-29T10:03:13;99604.69;;;15.31;81.67
49342;BME280;35210;41.606;-87.602;2023-05-29T10:05:43;99602.19;;;15.29;81.63
49342;BME280;35210;41.606;-87.602;2023-05-29T10:08:15;99601.34;;;15.29;81.59
49342;BME280;35210;41.606;-87.602;2023-05-29T10:10:46;99600.50;;;15.28;81.50
49342;BME280;35210;41.606;-87.602;2023-05-29T10:13:15;99592.81;;;15.25;81.58
49342;BME280;35210;41.606;-87.602;2023-05-29T10:15:45;99599.25;;;15.23;82.04
49342;BME280;35210;41.606;-87.602;2023-05-29T10:18:21;99607.25;;;15.23;82.31
49342;BME280;35210;41.606;-87.602;2023-05-29T10:20:50;99606.00;;;15.17;82.56
49342;BME280;35210;41.606;-87.602;2023-05-29T10:23:21;99612.16;;;15.18;83.09
49342;BME280;35210;41.606;-87.602;2023-05-29T10:25:52;99612.44;;;15.15;83.42
49342;BME280;35210;41.606;-87.602;2023-05-29T10:28:23;99617.75;;;15.15;83.81
49342;BME280;35210;41.606;-87.602;2023-05-29T10:30:55;99621.53;;;15.12;84.16
49342;BME280;35210;41.606;-87.602;2023-05-29T10:33:42;99619.16;;;15.09;84.38
49342;BME280;35210;41.606;-87.602;2023-05-29T10:36:15;99627.97;;;15.09;83.94
49342;BME280;35210;41.606;-87.602;2023-05-29T10:38:48;99628.97;;;15.08;84.00
49342;BME280;35210;41.606;-87.602;2023-05-29T10:41:34;99631.75;;;15.07;84.05
49342;BME280;35210;41.606;-87.602;2023-05-29T10:44:39;99632.88;;;15.04;84.38
49342;BME280;35210;41.606;-87.602;2023-05-29T10:47:10;99633.59;;;15.06;84.47
49342;BME280;35210;41.606;-87.602;2023-05-29T10:49:38;99634.84;;;15.02;85.27
49342;BME280;35210;41.606;-87.602;2023-05-29T10:52:06;99632.19;;;15.02;84.75
49342;BME280;35210;41.606;-87.602;2023-05-29T10:54:50;99641.84;;;15.03;84.81
49342;BME280;35210;41.606;-87.602;2023-05-29T10:57:21;99641.00;;;15.03;84.95
49342;BME280;35210;41.606;-87.602;2023-05-29T11:00:03;99637.78;;;14.99;85.87
49342;BME280;35210;41.606;-87.602;2023-05-29T11:02:39;99638.34;;;15.03;85.88
49342;BME280;35210;41.606;-87.602;2023-05-29T11:05:21;99642.41;;;14.97;86.05
49342;BME280;35210;41.606;-87.602;2023-05-29T11:07:56;99644.09;;;14.98;85.76
49342;BME280;35210;41.606;-87.602;2023-05-29T11:10:44;99632.19;;;15.02;85.49
49342;BME280;35210;41.606;-87.602;2023-05-29T11:13:27;99634.84;;;15.02;85.55
49342;BME280;35210;41.606;-87.602;2023-05-29T11:16:13;99639.31;;;15.02;86.13
49342;BME280;35210;41.606;-87.602;2023-05-29T11:18:42;99635.53;;;15.04;86.42
49342;BME280;35210;41.606;-87.602;2023-05-29T11:21:22;99639.88;;;15.05;86.71
49342;BME280;35210;41.606;-87.602;2023-05-29T11:23:52;99646.03;;;15.06;86.40
49342;BME280;35210;41.606;-87.602;2023-05-29T11:26:25;99642.41;;;15.07;86.35
49342;BME280;35210;41.606;-87.602;2023-05-29T11:28:57;99650.25;;;15.08;86.49
49342;BME280;35210;41.606;-87.602;2023-05-29T11:31:28;99654.56;;;15.09;86.33
49342;BME280;35210;41.606;-87.602;2023-05-29T11:34:00;99664.09;;;15.12;86.24
49342;BME280;35210;41.606;-87.602;2023-05-29T11:36:31;99658.63;;;15.13;86.10
49342;BME280;35210;41.606;-87.602;2023-05-29T11:39:00;99669.84;;;15.17;85.70
49342;BME280;35210;41.606;-87.602;2023-05-29T11:41:29;99670.38;;;15.21;85.44
49342;BME280;35210;41.606;-87.602;2023-05-29T11:43:59;99660.44;;;15.23;85.48
49342;BME280;35210;41.606;-87.602;2023-05-29T11:46:29;99659.19;;;15.27;85.35
49342;BME280;35210;41.606;-87.602;2023-05-29T11:48:59;99663.38;;;15.29;85.53
49342;BME280;35210;41.606;-87.602;2023-05-29T11:51:27;99675.56;;;15.32;85.19
49342;BME280;35210;41.606;-87.602;2023-05-29T11:53:56;99664.78;;;15.33;85.35
49342;BME280;35210;41.606;-87.602;2023-05-29T11:56:26;99669.94;;;15.35;85.37
49342;BME280;35210;41.606;-87.602;2023-05-29T11:58:54;99670.66;;;15.37;85.23
49342;BME280;35210;41.606;-87.602;2023-05-29T12:01:24;99671.50;;;15.37;85.35
49342;BME280;35210;41.606;-87.602;2023-05-29T12:03:54;99681.97;;;15.39;85.32
49342;BME280;35210;41.606;-87.602;2023-05-29T12:06:32;99681.69;;;15.42;85.67
49342;BME280;35210;41.606;-87.602;2023-05-29T12:09:02;99681.41;;;15.45;86.08
49342;BME280;35210;41.606;-87.602;2023-05-29T12:11:31;99685.47;;;15.49;86.29
49342;BME280;35210;41.606;-87.602;2023-05-29T12:14:01;99682.38;;;15.54;86.44
49342;BME280;35210;41.606;-87.602;2023-05-29T12:16:30;99683.47;;;15.61;86.89
49342;BME280;35210;41.606;-87.602;2023-05-29T12:19:00;99674.38;;;15.63;87.19
49342;BME280;35210;41.606;-87.602;2023-05-29T12:21:29;99676.16;;;15.72;87.05
49342;BME280;35210;41.606;-87.602;2023-05-29T12:23:58;99685.38;;;15.88;86.52
49342;BME280;35210;41.606;-87.602;2023-05-29T12:26:26;99681.25;;;16.03;86.16
49342;BME280;35210;41.606;-87.602;2023-05-29T12:28:54;99673.72;;;16.26;85.35
49342;BME280;35210;41.606;-87.602;2023-05-29T12:31:29;99677.38;;;16.42;84.19
49342;BME280;35210;41.606;-87.602;2023-05-29T12:34:00;99680.63;;;16.64;83.53
49342;BME280;35210;41.606;-87.602;2023-05-29T12:36:29;99685.75;;;16.75;82.70
49342;BME280;35210;41.606;-87.602;2023-05-29T12:38:57;99681.19;;;16.85;81.93
49342;BME280;35210;41.606;-87.602;2023-05-29T12:41:27;99678.31;;;16.96;81.93
49342;BME280;35210;41.606;-87.602;2023-05-29T12:43:56;99686.72;;;17.09;81.56
49342;BME280;35210;41.606;-87.602;2023-05-29T12:46:25;99673.63;;;17.16;81.67
49342;BME280;35210;41.606;-87.602;2023-05-29T12:48:54;99674.59;;;17.33;81.15
49342;BME280;35210;41.606;-87.602;2023-05-29T12:51:27;99673.34;;;17.45;80.39
49342;BME280;35210;41.606;-87.602;2023-05-29T12:53:58;99673.13;;;17.64;77.49